Time;durP1;ratioP1;P1;durP2;ratioP2;P2;SDS_P1;SDS_P2;PMS_P1;PMS_P2;Temp;Humidity;BMP_temperature;BMP_pressure;BME280_temperature;BME280_humidity;BME280_pressure;Samples;Min_cycle;Max_cycle;Signal;HPM_P1;HPM_P2
2022/08/29 00:00:54;;;;;;;7.13;3.17;;;20.20;99.90;;;;;;5044322;28;20086;-72
2022/08/29 00:03:19;;;;;;;8.23;3.50;;;20.20;99.90;;;;;;5039754;28;20034;-72
2022/08/29 00:05:45;;;;;;;6.35;2.97;;;20.20;99.90;;;;;;5054236;28;20029;-72
2022/08/29 00:08:11;;;;;;;5.70;3.03;;;20.30;99.90;;;;;;5041366;28;20025;-72
2022/08/29 00:10:37;;;;;;;5.00;2.75;;;20.30;99.90;;;;;;5038546;28;20086;-72
2022/08/29 00:13:06;;;;;;;7.82;2.97;;;20.20;99.90;;;;;;5037449;28;20445;-72
2022/08/29 00:15:33;;;;;;;4.80;2.92;;;20.20;99.90;;;;;;5050345;28;20471;-72
2022/08/29 00:17:59;;;;;;;5.88;2.70;;;20.20;99.90;;;;;;5042334;28;20036;-72
2022/08/29 00:20:28;;;;;;;8.55;3.08;;;20.20;99.90;;;;;;5034330;28;20036;-72
2022/08/29 00:22:53;;;;;;;5.70;3.47;;;20.20;99.90;;;;;;5035672;28;20056;-72
2022/08/29 00:25:20;;;;;;;5.22;2.83;;;20.20;99.90;;;;;;5037114;28;20486;-72
2022/08/29 00:27:46;;;;;;;5.15;2.95;;;20.20;99.90;;;;;;5047846;28;20033;-72
2022/08/29 00:30:13;;;;;;;4.35;2.58;;;20.20;99.90;;;;;;5035568;28;20098;-72
2022/08/29 00:32:39;;;;;;;7.85;2.58;;;20.30;99.90;;;;;;5039384;28;20395;-72
2022/08/29 00:35:11;;;;;;;5.60;2.72;;;20.30;99.90;;;;;;5049694;28;20033;-72
2022/08/29 00:37:37;;;;;;;5.32;2.83;;;20.30;99.90;;;;;;5048756;28;20388;-72
2022/08/29 00:40:06;;;;;;;6.03;2.60;;;20.20;99.90;;;;;;5053627;28;20027;-72
2022/08/29 00:42:34;;;;;;;7.18;3.20;;;20.20;99.90;;;;;;5042325;28;20037;-72
2022/08/29 00:45:00;;;;;;;5.43;2.97;;;20.20;99.90;;;;;;5040379;28;20037;-72
2022/08/29 00:47:32;;;;;;;6.65;3.03;;;20.10;99.90;;;;;;5037657;28;20029;-72
2022/08/29 00:49:58;;;;;;;5.15;2.85;;;20.10;99.90;;;;;;5040134;28;20543;-72
2022/08/29 00:52:36;;;;;;;4.70;2.75;;;20.10;99.90;;;;;;5045331;28;20029;-72
2022/08/29 00:55:09;;;;;;;5.50;2.95;;;20.10;99.90;;;;;;5052708;28;20033;-72
2022/08/29 00:57:38;;;;;;;5.03;3.08;;;20.00;99.90;;;;;;5053116;28;20080;-72
2022/08/29 01:00:06;;;;;;;6.78;2.80;;;20.10;99.90;;;;;;5066933;28;20031;-72
2022/08/29 01:02:33;;;;;;;6.07;3.13;;;20.10;99.90;;;;;;5055335;28;20390;-72
2022/08/29 01:04:59;;;;;;;4.97;3.03;;;20.10;99.90;;;;;;5068211;28;20575;-72
2022/08/29 01:07:25;;;;;;;8.00;2.88;;;20.00;99.90;;;;;;5063274;28;20037;-72
2022/08/29 01:09:51;;;;;;;4.30;2.80;;;20.00;99.90;;;;;;5071316;28;20425;-72
2022/08/29 01:12:18;;;;;;;8.40;2.72;;;20.00;99.90;;;;;;5063525;28;20032;-72
2022/08/29 01:14:55;;;;;;;4.88;3.08;;;20.10;99.90;;;;;;5067666;28;20805;-72
2022/08/29 01:17:26;;;;;;;6.55;3.03;;;20.10;99.90;;;;;;5063068;28;20218;-72
2022/08/29 01:20:18;;;;;;;6.45;3.30;;;20.10;99.90;;;;;;5054179;28;20025;-72
2022/08/29 01:23:19;;;;;;;7.97;3.10;;;20.10;99.90;;;;;;5057608;28;20028;-72
2022/08/29 01:25:49;;;;;;;5.60;2.97;;;20.10;99.90;;;;;;5069896;28;20024;-72
2022/08/29 01:28:26;;;;;;;5.95;3.03;;;20.10;99.90;;;;;;5072737;28;20036;-72
2022/08/29 01:31:00;;;;;;;5.88;2.55;;;20.10;99.90;;;;;;5069519;28;20027;-72
2022/08/29 01:33:43;;;;;;;4.72;2.85;;;20.00;99.90;;;;;;5066378;28;20025;-72
2022/08/29 01:36:13;;;;;;;4.97;3.30;;;19.90;99.90;;;;;;5056515;28;20043;-72
2022/08/29 01:38:40;;;;;;;5.57;3.00;;;20.00;99.90;;;;;;5064009;28;20109;-72
2022/08/29 01:41:06;;;;;;;5.18;3.63;;;19.90;99.90;;;;;;5072385;28;20031;-72
2022/08/29 01:43:42;;;;;;;6.25;3.38;;;19.80;99.90;;;;;;5070390;28;20103;-72
2022/08/29 01:46:10;;;;;;;6.03;3.53;;;19.80;99.90;;;;;;5063097;28;20032;-72
2022/08/29 01:48:38;;;;;;;8.57;3.70;;;19.80;99.90;;;;;;5058115;28;20044;-72
2022/08/29 01:51:05;;;;;;;8.05;3.80;;;19.90;99.90;;;;;;5067836;28;20482;-72
2022/08/29 01:53:31;;;;;;;5.57;3.45;;;19.90;99.90;;;;;;5063952;28;20036;-72
2022/08/29 01:55:56;;;;;;;5.43;3.42;;;19.90;99.90;;;;;;5071245;28;20146;-72
2022/08/29 01:58:22;;;;;;;6.03;3.38;;;19.90;99.90;;;;;;5054185;28;20095;-72
2022/08/29 02:00:50;;;;;;;5.50;3.28;;;19.70;99.90;;;;;;5054137;28;20036;-72
2022/08/29 02:03:17;;;;;;;5.38;3.40;;;19.70;99.90;;;;;;5063567;28;20028;-72
2022/08/29 02:05:47;;;;;;;6.47;3.00;;;19.70;99.90;;;;;;5072443;28;20448;-72
2022/08/29 02:08:13;;;;;;;5.75;3.83;;;19.80;99.90;;;;;;5068551;28;20440;-72
2022/08/29 02:10:38;;;;;;;4.57;2.90;;;19.70;99.90;;;;;;5066578;28;20119;-72
2022/08/29 02:13:04;;;;;;;6.65;3.35;;;19.70;99.90;;;;;;5069524;28;20398;-72
2022/08/29 02:15:30;;;;;;;5.35;3.28;;;19.60;99.90;;;;;;5063354;28;20039;-72
2022/08/29 02:17:55;;;;;;;6.32;2.90;;;19.60;99.90;;;;;;5054072;28;20166;-73
2022/08/29 02:20:21;;;;;;;6.28;3.63;;;19.60;99.90;;;;;;5071325;28;20036;-72
2022/08/29 02:22:47;;;;;;;6.72;2.83;;;19.40;99.90;;;;;;5059796;28;20028;-72
2022/08/29 02:27:57;;;;;;;6.93;3.88;;;19.30;99.90;;;;;;5066597;28;21289;-72
2022/08/29 02:30:24;;;;;;;5.32;3.10;;;19.30;99.90;;;;;;5063898;28;20048;-72
2022/08/29 02:32:50;;;;;;;5.05;2.90;;;19.10;99.90;;;;;;5057750;28;20064;-72
2022/08/29 02:35:16;;;;;;;7.30;3.80;;;19.10;99.90;;;;;;5055994;28;20474;-72
2022/08/29 02:37:42;;;;;;;6.85;3.63;;;19.10;99.90;;;;;;5055792;28;20086;-72
2022/08/29 02:40:08;;;;;;;5.40;3.35;;;19.10;99.90;;;;;;5055604;28;20032;-72
2022/08/29 02:42:34;;;;;;;5.55;3.35;;;19.20;99.90;;;;;;5058480;28;20483;-72
2022/08/29 02:45:00;;;;;;;5.35;3.20;;;19.10;99.90;;;;;;5065511;28;20032;-72
2022/08/29 02:47:26;;;;;;;6.03;2.75;;;19.00;99.90;;;;;;5061578;28;20462;-72
2022/08/29 02:49:51;;;;;;;6.10;3.33;;;18.90;99.90;;;;;;5067900;28;20074;-72
2022/08/29 02:52:17;;;;;;;5.75;3.53;;;19.00;99.90;;;;;;5051122;28;20126;-72
2022/08/29 02:54:43;;;;;;;7.18;3.95;;;19.20;99.90;;;;;;5055265;28;20033;-72
2022/08/29 02:57:09;;;;;;;6.88;3.55;;;19.30;99.90;;;;;;5056222;28;20047;-72
2022/08/29 02:59:35;;;;;;;7.50;3.67;;;19.30;99.90;;;;;;5038695;28;20136;-72
2022/08/29 03:02:00;;;;;;;6.30;3.70;;;19.30;99.90;;;;;;5034762;28;20109;-71
2022/08/29 03:04:26;;;;;;;7.72;3.55;;;19.30;99.90;;;;;;5026680;28;20033;-71
2022/08/29 03:06:52;;;;;;;6.55;2.92;;;19.20;99.90;;;;;;5036386;28;20040;-71
2022/08/29 03:09:18;;;;;;;5.50;3.15;;;19.20;99.90;;;;;;5028022;28;20040;-71
2022/08/29 03:11:43;;;;;;;5.63;3.13;;;19.00;99.90;;;;;;5026574;28;20041;-71
2022/08/29 03:14:09;;;;;;;5.47;3.35;;;19.10;99.90;;;;;;5037654;28;20033;-71
2022/08/29 03:16:34;;;;;;;6.20;3.25;;;19.10;99.90;;;;;;5044701;28;20121;-72
2022/08/29 03:19:00;;;;;;;13.18;4.63;;;19.00;99.90;;;;;;5038011;28;20083;-71
2022/08/29 03:21:26;;;;;;;5.45;3.47;;;18.90;99.90;;;;;;5042840;28;20032;-71
2022/08/29 03:23:55;;;;;;;5.22;3.40;;;19.00;99.90;;;;;;5038405;28;20025;-71
2022/08/29 03:26:21;;;;;;;6.05;3.70;;;19.10;99.90;;;;;;5046678;28;20082;-71
2022/08/29 03:28:47;;;;;;;6.60;3.60;;;19.00;99.90;;;;;;5037012;28;20021;-71
2022/08/29 03:31:13;;;;;;;6.60;3.17;;;19.10;99.90;;;;;;5046738;28;20068;-71
2022/08/29 03:33:39;;;;;;;7.95;4.22;;;19.00;99.90;;;;;;5037967;28;20063;-71
2022/08/29 03:36:06;;;;;;;6.88;3.67;;;19.00;99.90;;;;;;5043361;28;20033;-71
2022/08/29 03:38:34;;;;;;;5.35;3.60;;;18.90;99.90;;;;;;5028069;28;20082;-71
2022/08/29 03:41:00;;;;;;;7.60;3.35;;;18.90;99.90;;;;;;5028198;28;20036;-71
2022/08/29 03:43:25;;;;;;;6.75;3.70;;;19.00;99.90;;;;;;5031574;28;20029;-71
2022/08/29 03:45:53;;;;;;;6.70;3.65;;;19.00;99.90;;;;;;5045914;28;20060;-71
2022/08/29 03:48:19;;;;;;;9.20;3.67;;;19.00;99.90;;;;;;5036259;28;20582;-71
2022/08/29 03:50:44;;;;;;;5.50;3.40;;;19.00;99.90;;;;;;5044745;28;20031;-71
2022/08/29 03:53:10;;;;;;;6.50;3.58;;;19.00;99.90;;;;;;5042731;28;20123;-71
2022/08/29 03:55:37;;;;;;;5.63;3.78;;;19.00;99.90;;;;;;5047088;28;20422;-71
2022/08/29 03:58:02;;;;;;;7.05;3.35;;;19.00;99.90;;;;;;5056356;28;20506;-71
2022/08/29 04:00:28;;;;;;;6.45;3.83;;;19.00;99.90;;;;;;5063201;28;20036;-71
2022/08/29 04:02:54;;;;;;;6.13;4.10;;;18.90;99.90;;;;;;5052541;28;20029;-71
2022/08/29 04:05:20;;;;;;;6.82;3.97;;;19.00;99.90;;;;;;5051668;28;20029;-71
2022/08/29 04:07:46;;;;;;;6.80;3.55;;;19.00;99.90;;;;;;5052234;28;20063;-71
2022/08/29 04:10:19;;;;;;;7.55;4.03;;;18.90;99.90;;;;;;5064354;28;20121;-71
2022/08/29 04:12:45;;;;;;;5.80;3.67;;;19.00;99.90;;;;;;5058517;28;20135;-71
2022/08/29 04:15:11;;;;;;;6.45;3.67;;;19.10;99.90;;;;;;5066625;28;20107;-72
2022/08/29 04:17:37;;;;;;;7.97;4.07;;;19.10;99.90;;;;;;5055410;28;20045;-71
2022/08/29 04:20:05;;;;;;;5.10;3.78;;;19.10;99.90;;;;;;5060240;28;20667;-72
2022/08/29 04:22:30;;;;;;;5.97;3.65;;;19.10;99.90;;;;;;5066917;28;20035;-71
2022/08/29 04:24:56;;;;;;;8.98;4.13;;;19.10;99.90;;;;;;5052893;28;21623;-72
2022/08/29 04:27:22;;;;;;;6.28;3.67;;;19.10;99.90;;;;;;5064452;28;20024;-71
2022/08/29 04:29:47;;;;;;;5.97;4.20;;;19.00;99.90;;;;;;5056200;28;20428;-71
2022/08/29 04:32:15;;;;;;;5.68;3.72;;;18.90;99.90;;;;;;5047054;28;20037;-71
2022/08/29 04:34:41;;;;;;;6.57;3.80;;;18.90;99.90;;;;;;5058336;28;20025;-71
2022/08/29 04:37:06;;;;;;;8.00;4.03;;;18.90;99.90;;;;;;5058394;28;20083;-71
2022/08/29 04:39:33;;;;;;;6.28;4.13;;;18.90;99.90;;;;;;5050482;28;20025;-72
2022/08/29 04:41:59;;;;;;;7.28;4.25;;;18.80;99.90;;;;;;5062086;28;20119;-71
2022/08/29 04:44:24;;;;;;;8.13;4.00;;;18.90;99.90;;;;;;5064177;28;20108;-72
2022/08/29 04:46:50;;;;;;;7.82;3.90;;;18.90;99.90;;;;;;5061859;28;20111;-72
2022/08/29 04:49:16;;;;;;;8.40;3.90;;;18.90;99.90;;;;;;5050469;28;20032;-71
2022/08/29 04:51:42;;;;;;;12.77;4.00;;;19.00;99.90;;;;;;5048509;28;20165;-71
2022/08/29 04:54:08;;;;;;;7.25;4.32;;;19.10;99.90;;;;;;5046521;28;20505;-71
2022/08/29 04:56:36;;;;;;;7.22;3.78;;;19.10;99.90;;;;;;5058933;28;20686;-71
2022/08/29 04:59:01;;;;;;;5.93;3.67;;;19.10;99.90;;;;;;5060334;28;20032;-71
2022/08/29 05:01:27;;;;;;;6.72;3.88;;;19.00;99.90;;;;;;5065505;28;20035;-71
2022/08/29 05:03:54;;;;;;;6.97;4.32;;;18.90;99.90;;;;;;5061706;28;20250;-72
2022/08/29 05:06:21;;;;;;;5.93;3.92;;;18.90;99.90;;;;;;5059187;28;20359;-71
2022/08/29 05:08:47;;;;;;;6.65;4.13;;;18.80;99.90;;;;;;5056705;28;20104;-71
2022/08/29 05:11:18;;;;;;;8.30;4.45;;;18.70;99.90;;;;;;5064026;28;20923;-71
2022/08/29 05:13:45;;;;;;;7.88;4.38;;;18.70;99.90;;;;;;5062457;28;20135;-71
2022/08/29 05:16:13;;;;;;;9.75;4.40;;;18.70;99.90;;;;;;5058618;28;20060;-71
2022/08/29 05:18:40;;;;;;;7.03;4.25;;;18.60;99.90;;;;;;5058243;28;20032;-71
2022/08/29 05:21:06;;;;;;;5.97;3.83;;;18.60;99.90;;;;;;5056365;28;20029;-71
2022/08/29 05:23:31;;;;;;;6.57;4.03;;;18.60;99.90;;;;;;5054880;28;20112;-71
2022/08/29 05:25:59;;;;;;;7.72;4.68;;;18.70;99.90;;;;;;5049982;28;20120;-71
2022/08/29 05:28:26;;;;;;;7.55;3.75;;;18.80;99.90;;;;;;5067566;28;20099;-71
2022/08/29 05:30:52;;;;;;;7.38;3.72;;;18.90;99.90;;;;;;5055998;28;20113;-71
2022/08/29 05:33:18;;;;;;;6.90;4.00;;;19.00;99.90;;;;;;5062521;28;20108;-72
2022/08/29 05:35:44;;;;;;;5.32;3.60;;;19.10;99.90;;;;;;5058402;28;20036;-72
2022/08/29 05:38:10;;;;;;;9.18;4.07;;;19.20;99.90;;;;;;5068474;28;20111;-71
2022/08/29 05:40:36;;;;;;;5.47;3.45;;;19.20;99.90;;;;;;5064224;28;20458;-72
2022/08/29 05:43:03;;;;;;;5.40;3.55;;;19.30;99.90;;;;;;5051045;28;20028;-72
2022/08/29 05:45:28;;;;;;;6.50;3.72;;;19.40;99.90;;;;;;5058521;28;20489;-72
2022/08/29 05:47:55;;;;;;;4.75;3.53;;;19.50;99.90;;;;;;5061642;28;20106;-72
2022/08/29 05:50:22;;;;;;;7.28;3.97;;;19.50;99.90;;;;;;5055587;28;20545;-72
2022/08/29 05:52:47;;;;;;;7.70;3.97;;;19.60;99.90;;;;;;5060587;28;20478;-72
2022/08/29 05:55:13;;;;;;;6.32;3.80;;;19.70;99.90;;;;;;5060182;28;20120;-73
2022/08/29 05:57:39;;;;;;;8.68;4.30;;;19.70;99.90;;;;;;5046408;28;20487;-73
2022/08/29 06:00:10;;;;;;;7.10;4.70;;;19.70;99.90;;;;;;5046101;28;20029;-72
2022/08/29 06:02:35;;;;;;;7.68;4.50;;;19.70;99.90;;;;;;5046955;28;20025;-72
2022/08/29 06:05:03;;;;;;;8.73;4.50;;;19.80;99.90;;;;;;5056477;28;20447;-72
2022/08/29 06:07:29;;;;;;;7.30;3.72;;;19.90;99.90;;;;;;5052229;28;20068;-72
2022/08/29 06:09:55;;;;;;;6.63;4.47;;;19.90;99.90;;;;;;5055418;28;20033;-72
2022/08/29 06:12:21;;;;;;;7.07;3.65;;;20.00;99.90;;;;;;5050748;28;20098;-72
2022/08/29 06:14:47;;;;;;;7.07;3.92;;;20.00;99.90;;;;;;5051220;28;20094;-72
2022/08/29 06:17:12;;;;;;;5.45;3.45;;;20.10;99.90;;;;;;5064113;28;20483;-74
2022/08/29 06:19:39;;;;;;;7.03;3.70;;;20.10;99.90;;;;;;5065213;28;20074;-73
2022/08/29 06:22:06;;;;;;;6.53;3.53;;;20.10;99.90;;;;;;5066022;28;20082;-73
2022/08/29 06:24:33;;;;;;;6.43;3.75;;;20.10;99.90;;;;;;5054860;28;20037;-73
2022/08/29 06:27:00;;;;;;;6.18;3.83;;;20.10;99.90;;;;;;5064269;28;20055;-72
2022/08/29 06:29:26;;;;;;;7.00;3.88;;;20.20;99.90;;;;;;5057013;28;20094;-73
2022/08/29 06:31:54;;;;;;;8.00;3.63;;;20.20;99.90;;;;;;5057524;28;20020;-73
2022/08/29 06:34:20;;;;;;;6.40;4.00;;;20.20;99.90;;;;;;5065905;28;20048;-73
2022/08/29 06:36:46;;;;;;;11.02;4.28;;;20.20;99.90;;;;;;5047104;28;20564;-73
2022/08/29 06:39:12;;;;;;;13.18;5.13;;;20.20;99.90;;;;;;5051372;28;20417;-73
2022/08/29 06:41:39;;;;;;;7.88;4.68;;;20.40;99.90;;;;;;5063539;28;20041;-72
2022/08/29 06:44:06;;;;;;;7.32;4.32;;;20.60;99.90;;;;;;5056249;28;20305;-73
2022/08/29 06:46:41;;;;;;;8.45;4.22;;;21.40;99.90;;;;;;5053523;28;20020;-72
2022/08/29 06:49:12;;;;;;;7.32;3.60;;;22.50;99.90;;;;;;5051945;28;20483;-72
2022/08/29 06:51:40;;;;;;;8.15;4.13;;;23.50;99.90;;;;;;5053321;28;20438;-73
2022/08/29 06:54:07;;;;;;;5.60;3.58;;;23.90;99.90;;;;;;5052363;28;20490;-73
2022/08/29 06:56:34;;;;;;;6.82;4.07;;;25.30;99.90;;;;;;5049595;28;20112;-73
2022/08/29 06:59:00;;;;;;;8.70;4.32;;;26.50;99.30;;;;;;5061476;28;20041;-73
2022/08/29 07:01:26;;;;;;;6.90;4.38;;;26.70;98.70;;;;;;5043057;28;20051;-73
2022/08/29 07:03:53;;;;;;;5.90;3.97;;;26.70;98.20;;;;;;5062430;28;20028;-73
2022/08/29 07:06:19;;;;;;;7.75;4.13;;;27.00;97.50;;;;;;5067364;28;20032;-73
2022/08/29 07:08:45;;;;;;;7.72;3.97;;;27.10;97.20;;;;;;5065654;28;20028;-73
2022/08/29 07:11:11;;;;;;;6.22;3.50;;;27.10;97.00;;;;;;5074376;28;20460;-73
2022/08/29 07:13:38;;;;;;;8.88;4.38;;;27.40;96.50;;;;;;5068888;28;20101;-73
2022/08/29 07:16:11;;;;;;;6.35;3.78;;;27.40;96.60;;;;;;5064671;28;20081;-73
2022/08/29 07:18:37;;;;;;;6.47;4.28;;;27.70;96.20;;;;;;5046599;28;20033;-73
2022/08/29 07:21:08;;;;;;;7.65;4.22;;;27.90;96.00;;;;;;5055417;28;20059;-74
2022/08/29 07:23:34;;;;;;;6.15;3.72;;;27.80;95.80;;;;;;5061597;28;20037;-73
2022/08/29 07:26:28;;;;;;;8.55;3.53;;;27.80;95.90;;;;;;5047299;28;20036;-73
2022/08/29 07:28:56;;;;;;;12.48;4.40;;;27.30;96.40;;;;;;5064894;28;20047;-73
2022/08/29 07:31:22;;;;;;;7.28;3.80;;;27.00;96.40;;;;;;5051127;28;20035;-72
2022/08/29 07:33:47;;;;;;;6.38;3.85;;;24.90;98.90;;;;;;5062219;28;20041;-73
2022/08/29 07:36:13;;;;;;;8.40;3.25;;;23.60;99.90;;;;;;5070802;28;20040;-73
2022/08/29 07:38:39;;;;;;;5.97;4.30;;;22.70;99.90;;;;;;5070315;28;20036;-72
2022/08/29 07:41:08;;;;;;;7.25;4.25;;;22.40;99.90;;;;;;5068925;28;20124;-73
2022/08/29 07:43:34;;;;;;;5.82;4.05;;;22.00;99.90;;;;;;5068773;28;20037;-72
2022/08/29 07:46:11;;;;;;;7.38;4.25;;;22.00;99.90;;;;;;5070178;28;20090;-73
2022/08/29 07:48:38;;;;;;;7.38;4.35;;;22.00;99.90;;;;;;5055554;28;20029;-73
2022/08/29 07:51:15;;;;;;;5.78;3.15;;;21.80;99.90;;;;;;5059318;28;20145;-73
2022/08/29 07:53:41;;;;;;;7.35;3.75;;;21.90;99.90;;;;;;5056765;28;20086;-73
2022/08/29 07:56:10;;;;;;;6.53;3.75;;;22.00;99.90;;;;;;5055531;28;20031;-73
2022/08/29 07:58:37;;;;;;;7.38;4.07;;;22.20;99.90;;;;;;5054117;28;20036;-73
2022/08/29 08:01:03;;;;;;;6.30;3.85;;;22.10;99.90;;;;;;5057814;28;20467;-73
2022/08/29 08:03:30;;;;;;;6.85;4.40;;;22.20;99.90;;;;;;5052089;28;20522;-73
2022/08/29 08:05:56;;;;;;;8.60;4.30;;;22.20;99.90;;;;;;5057753;28;20406;-73
2022/08/29 08:08:21;;;;;;;7.88;3.83;;;22.30;99.90;;;;;;5060028;28;20048;-73
2022/08/29 08:10:47;;;;;;;5.70;3.55;;;22.40;99.90;;;;;;5053611;28;20032;-73
2022/08/29 08:13:13;;;;;;;6.53;3.65;;;22.40;99.90;;;;;;5054151;28;20059;-72
2022/08/29 08:15:39;;;;;;;6.07;3.60;;;22.30;99.90;;;;;;5064024;28;20776;-73
2022/08/29 08:18:05;;;;;;;6.78;3.60;;;22.40;99.90;;;;;;5066933;28;20032;-73
2022/08/29 08:20:31;;;;;;;5.43;3.92;;;22.50;99.90;;;;;;5069488;28;20029;-72
2022/08/29 08:22:57;;;;;;;6.40;4.45;;;22.60;99.90;;;;;;5070019;28;20039;-73
2022/08/29 08:25:23;;;;;;;6.45;3.63;;;22.60;99.90;;;;;;5053248;28;20040;-73
2022/08/29 08:27:49;;;;;;;6.28;3.85;;;22.70;99.90;;;;;;5068380;28;20059;-73
2022/08/29 08:30:15;;;;;;;5.15;3.53;;;22.70;99.90;;;;;;5059675;28;20023;-73
2022/08/29 08:32:41;;;;;;;5.53;3.70;;;22.70;99.90;;;;;;5060795;28;20043;-72
2022/08/29 08:35:07;;;;;;;6.82;4.03;;;22.80;99.90;;;;;;5068741;28;20466;-73
2022/08/29 08:37:33;;;;;;;5.15;3.92;;;22.80;99.90;;;;;;5069747;28;20036;-72
2022/08/29 08:39:59;;;;;;;8.40;4.00;;;22.90;99.90;;;;;;5069271;28;20387;-72
2022/08/29 08:42:30;;;;;;;5.32;3.55;;;23.00;99.90;;;;;;5071502;28;20025;-73
2022/08/29 08:45:09;;;;;;;7.40;3.35;;;23.20;99.90;;;;;;5068609;28;20155;-72
2022/08/29 08:47:50;;;;;;;5.57;3.60;;;24.40;99.90;;;;;;5066680;28;20028;-73
2022/08/29 08:50:42;;;;;;;6.30;3.95;;;26.90;99.00;;;;;;5060661;28;20021;-72
2022/08/29 08:53:10;;;;;;;5.57;4.00;;;28.00;96.40;;;;;;5068942;28;20502;-73
2022/08/29 08:55:40;;;;;;;5.70;4.00;;;28.70;96.00;;;;;;5067162;28;20036;-72
2022/08/29 08:58:06;;;;;;;7.63;3.85;;;29.10;95.80;;;;;;5068047;28;20075;-72
2022/08/29 09:00:41;;;;;;;6.93;3.63;;;29.10;95.40;;;;;;5050730;28;20072;-73
2022/08/29 09:03:24;;;;;;;8.43;4.15;;;29.40;94.90;;;;;;5068362;28;20028;-73
2022/08/29 09:06:02;;;;;;;6.55;3.80;;;29.40;95.30;;;;;;5068912;28;20498;-73
2022/08/29 09:08:34;;;;;;;5.88;3.67;;;29.20;95.60;;;;;;5068906;28;20039;-73
2022/08/29 09:11:08;;;;;;;6.35;3.72;;;28.70;94.80;;;;;;5068361;28;20033;-72
2022/08/29 09:14:07;;;;;;;5.63;3.78;;;28.90;95.70;;;;;;5062811;28;20613;-73
2022/08/29 09:16:44;;;;;;;7.03;3.80;;;29.20;95.20;;;;;;5055913;28;20111;-73
2022/08/29 09:19:13;;;;;;;5.07;3.58;;;29.20;95.60;;;;;;5052835;28;20078;-73
2022/08/29 09:21:47;;;;;;;5.75;3.45;;;28.90;94.90;;;;;;5048211;28;20143;-73
2022/08/29 09:24:38;;;;;;;5.60;4.03;;;28.20;95.30;;;;;;5058789;28;20498;-72
2022/08/29 09:27:05;;;;;;;6.30;3.88;;;28.30;95.60;;;;;;5067395;28;20045;-73
2022/08/29 09:29:31;;;;;;;6.35;3.40;;;27.60;96.40;;;;;;5063423;28;20067;-73
2022/08/29 09:32:13;;;;;;;5.63;3.58;;;26.50;96.90;;;;;;5061444;28;20028;-72
2022/08/29 09:34:45;;;;;;;8.65;3.70;;;26.40;98.20;;;;;;5056911;28;20106;-73
2022/08/29 09:37:32;;;;;;;6.55;4.18;;;26.20;97.40;;;;;;5068476;28;20107;-73
2022/08/29 09:40:09;;;;;;;5.70;3.75;;;26.10;97.50;;;;;;5067815;28;20443;-73
2022/08/29 09:42:39;;;;;;;8.32;3.50;;;25.80;97.70;;;;;;5068076;28;20037;-72
2022/08/29 09:45:25;;;;;;;9.05;4.10;;;25.90;98.10;;;;;;5065692;28;20422;-72
2022/08/29 09:48:23;;;;;;;5.40;3.92;;;25.90;97.40;;;;;;5068597;28;20025;-73
2022/08/29 09:50:48;;;;;;;10.02;3.90;;;25.90;96.90;;;;;;5026829;28;20049;-73
2022/08/29 09:53:22;;;;;;;5.82;3.55;;;25.70;97.30;;;;;;5067353;28;20025;-73
2022/08/29 09:55:48;;;;;;;7.00;3.97;;;25.70;97.40;;;;;;5071324;28;20029;-73
2022/08/29 09:58:17;;;;;;;8.65;4.03;;;25.90;97.60;;;;;;5075350;28;20056;-73
2022/08/29 10:01:19;;;;;;;6.43;4.05;;;26.00;97.80;;;;;;5069841;28;20033;-73
2022/08/29 10:03:57;;;;;;;5.72;3.92;;;26.10;97.50;;;;;;5068258;28;20103;-73
2022/08/29 10:06:30;;;;;;;6.63;4.38;;;26.10;97.40;;;;;;5062018;28;20513;-73
2022/08/29 10:09:02;;;;;;;6.10;3.38;;;26.30;97.70;;;;;;5056826;28;20025;-72
2022/08/29 10:11:46;;;;;;;5.93;4.13;;;26.20;97.10;;;;;;5052105;28;20033;-73
2022/08/29 10:14:27;;;;;;;5.32;3.85;;;26.30;97.10;;;;;;5055793;28;20123;-73
2022/08/29 10:19:59;;;;;;;7.88;4.22;;;26.30;97.10;;;;;;5047667;28;20110;-73
2022/08/29 10:22:46;;;;;;;5.85;3.80;;;26.60;97.90;;;;;;5050054;28;20036;-73
2022/08/29 10:25:20;;;;;;;5.30;3.70;;;26.90;97.20;;;;;;5067098;28;20086;-73
2022/08/29 10:27:59;;;;;;;5.68;3.55;;;27.10;97.50;;;;;;5066034;28;20028;-73
2022/08/29 10:30:47;;;;;;;7.65;3.78;;;27.00;96.70;;;;;;5067263;28;20028;-73
2022/08/29 10:33:47;;;;;;;5.70;4.03;;;27.00;96.40;;;;;;5059972;28;20025;-73
2022/08/29 10:36:17;;;;;;;5.95;3.92;;;27.40;97.70;;;;;;5060340;28;20103;-72
2022/08/29 10:38:44;;;;;;;6.60;4.43;;;27.50;97.20;;;;;;5066820;28;20047;-73
2022/08/29 10:41:43;;;;;;;5.25;3.70;;;27.40;96.20;;;;;;5066631;28;20040;-73
2022/08/29 10:44:18;;;;;;;5.43;3.70;;;27.50;96.70;;;;;;5052144;28;20087;-73
2022/08/29 10:47:28;;;;;;;5.05;3.45;;;28.00;96.20;;;;;;5066257;28;20517;-73
2022/08/29 10:50:22;;;;;;;7.22;4.10;;;28.30;95.70;;;;;;5051354;28;20040;-73
2022/08/29 10:53:12;;;;;;;6.28;3.85;;;28.40;95.90;;;;;;5047193;28;20402;-71
2022/08/29 10:55:53;;;;;;;4.82;3.03;;;28.30;95.30;;;;;;5047508;28;20029;-72
2022/08/29 10:58:38;;;;;;;4.32;3.13;;;28.30;95.10;;;;;;5064277;28;20044;-73
2022/08/29 11:01:06;;;;;;;7.15;4.20;;;28.20;95.20;;;;;;5050875;28;20597;-72
2022/08/29 11:03:38;;;;;;;5.18;3.45;;;28.00;95.50;;;;;;5050031;28;20486;-72
2022/08/29 11:06:24;;;;;;;4.63;3.03;;;28.30;96.30;;;;;;5057052;28;20039;-72
2022/08/29 11:09:03;;;;;;;4.55;3.05;;;28.30;95.40;;;;;;5055054;28;20421;-72
2022/08/29 11:11:31;;;;;;;5.80;3.40;;;28.20;96.00;;;;;;5051990;28;20048;-72
2022/08/29 11:14:04;;;;;;;4.70;3.05;;;28.20;94.90;;;;;;5037453;28;20429;-73
2022/08/29 11:16:42;;;;;;;5.93;3.42;;;28.30;95.40;;;;;;5055988;28;20568;-72
2022/08/29 11:19:11;;;;;;;5.40;3.80;;;28.40;95.00;;;;;;5057932;28;20045;-73
2022/08/29 11:21:48;;;;;;;10.38;3.30;;;28.40;95.50;;;;;;5055848;28;20028;-72
2022/08/29 11:24:15;;;;;;;5.43;3.35;;;28.40;95.80;;;;;;5057308;28;20597;-72
2022/08/29 11:26:47;;;;;;;5.53;3.40;;;28.50;95.60;;;;;;5055326;28;20452;-72
2022/08/29 11:29:40;;;;;;;6.20;3.50;;;28.60;95.70;;;;;;5057514;28;20124;-72
2022/08/29 11:32:08;;;;;;;5.97;3.63;;;28.80;95.50;;;;;;5060293;28;20098;-73
2022/08/29 11:34:57;;;;;;;5.00;3.47;;;28.80;94.40;;;;;;5063318;28;20383;-72
2022/08/29 11:37:53;;;;;;;5.82;3.67;;;28.40;94.70;;;;;;5060357;28;20466;-72
2022/08/29 11:40:27;;;;;;;6.47;3.30;;;28.60;94.40;;;;;;5063336;28;20575;-73
2022/08/29 11:42:55;;;;;;;4.22;2.65;;;28.90;94.90;;;;;;5063603;28;20386;-73
2022/08/29 11:45:32;;;;;;;5.95;2.75;;;29.10;94.10;;;;;;5062080;28;20090;-73
2022/08/29 11:48:15;;;;;;;4.65;2.58;;;29.20;94.20;;;;;;5062121;28;20104;-73
2022/08/29 11:50:41;;;;;;;5.40;2.60;;;29.30;93.80;;;;;;5062971;28;20027;-73
2022/08/29 11:53:34;;;;;;;5.53;3.30;;;29.50;93.10;;;;;;5063137;28;20032;-73
2022/08/29 11:56:12;;;;;;;7.25;3.13;;;29.50;93.00;;;;;;5062550;28;20044;-71
2022/08/29 11:58:42;;;;;;;7.03;3.17;;;29.50;93.60;;;;;;5063282;28;20044;-71
2022/08/29 12:01:36;;;;;;;5.25;2.95;;;29.40;93.40;;;;;;5063406;28;20493;-72
2022/08/29 12:04:07;;;;;;;5.93;3.20;;;29.50;93.50;;;;;;5062310;28;20025;-71
2022/08/29 12:06:53;;;;;;;8.45;3.00;;;29.50;93.50;;;;;;5062854;28;20459;-72
2022/08/29 12:09:31;;;;;;;5.80;3.60;;;29.60;93.10;;;;;;5062565;28;20439;-72
2022/08/29 12:12:11;;;;;;;6.22;2.70;;;29.50;93.40;;;;;;5060833;28;20612;-72
2022/08/29 12:14:39;;;;;;;5.82;3.20;;;29.50;93.50;;;;;;5049627;28;20463;-72
2022/08/29 12:17:29;;;;;;;5.95;2.85;;;29.40;93.30;;;;;;5050326;28;20040;-72
2022/08/29 12:19:55;;;;;;;5.68;3.70;;;29.40;93.60;;;;;;5044172;28;20156;-72
2022/08/29 12:22:42;;;;;;;5.28;2.92;;;29.40;93.80;;;;;;5057915;28;20036;-72
2022/08/29 12:25:28;;;;;;;5.20;3.45;;;29.60;94.10;;;;;;5065106;28;20024;-72
2022/08/29 12:28:04;;;;;;;5.00;3.45;;;29.60;93.40;;;;;;5067056;28;20055;-72
2022/08/29 12:30:40;;;;;;;4.78;3.47;;;29.50;93.80;;;;;;5064281;28;20089;-72
2022/08/29 12:33:09;;;;;;;4.85;3.35;;;29.30;93.30;;;;;;5065786;28;20097;-72
2022/08/29 12:36:12;;;;;;;4.32;3.10;;;29.30;93.50;;;;;;5066513;28;20024;-72
2022/08/29 12:38:59;;;;;;;5.68;3.03;;;29.70;93.20;;;;;;5065397;28;20066;-72
2022/08/29 12:41:47;;;;;;;6.13;3.08;;;29.60;93.00;;;;;;5067192;28;20036;-74
2022/08/29 12:44:15;;;;;;;5.97;3.25;;;29.50;93.10;;;;;;5068870;28;20032;-72
2022/08/29 12:46:52;;;;;;;5.43;3.63;;;29.60;92.80;;;;;;5061908;28;20529;-73
2022/08/29 12:49:25;;;;;;;7.13;3.10;;;29.50;93.20;;;;;;5050933;28;20095;-73
2022/08/29 12:51:55;;;;;;;5.07;2.95;;;29.70;92.90;;;;;;5049092;28;20053;-71
2022/08/29 12:54:48;;;;;;;4.60;2.67;;;29.60;92.30;;;;;;5050598;28;20104;-72
2022/08/29 12:57:28;;;;;;;4.63;2.72;;;29.60;92.20;;;;;;5046814;28;20045;-72
2022/08/29 12:59:55;;;;;;;4.55;2.35;;;29.80;91.30;;;;;;5050719;28;20068;-72
2022/08/29 13:02:31;;;;;;;7.95;3.38;;;29.80;91.40;;;;;;5065657;28;20039;-73
2022/08/29 13:04:57;;;;;;;5.45;2.65;;;29.90;92.30;;;;;;5064024;28;20025;-72
2022/08/29 13:07:25;;;;;;;5.55;3.25;;;29.70;91.90;;;;;;5066337;28;20135;-72
2022/08/29 13:09:56;;;;;;;4.43;2.60;;;29.80;92.40;;;;;;5063061;28;20028;-73